createdAt,value
2018-02-09T00:00:49.551Z,2.40
2018-02-09T00:03:16.985Z,2.50
2018-02-09T00:05:44.412Z,2.50
2018-02-09T00:08:12.612Z,2.60
2018-02-09T00:10:40.032Z,2.60
2018-02-09T00:13:08.237Z,2.90
2018-02-09T00:15:35.693Z,2.90
2018-02-09T00:18:03.124Z,3.00
2018-02-09T00:20:31.308Z,3.10
2018-02-09T00:22:59.518Z,3.30
2018-02-09T00:25:26.941Z,3.30
2018-02-09T00:27:55.196Z,3.60
2018-02-09T00:30:22.628Z,3.60
2018-02-09T00:32:50.056Z,3.50
2018-02-09T00:35:17.488Z,3.40
2018-02-09T00:37:45.679Z,3.50
2018-02-09T00:40:13.108Z,3.30
2018-02-09T00:42:41.296Z,3.30
2018-02-09T00:45:09.491Z,3.20
2018-02-09T00:47:36.923Z,3.20
2018-02-09T00:50:04.391Z,3.10
2018-02-09T00:52:31.813Z,3.20
2018-02-09T00:54:59.240Z,3.30
2018-02-09T00:57:26.677Z,3.00
2018-02-09T00:59:54.261Z,3.00
2018-02-09T01:02:21.688Z,2.80
2018-02-09T01:04:49.116Z,3.00
2018-02-09T01:07:16.548Z,3.20
2018-02-09T01:09:43.977Z,2.90
2018-02-09T01:12:11.577Z,3.00
2018-02-09T01:14:38.988Z,3.10
2018-02-09T01:17:06.429Z,3.10
2018-02-09T01:19:34.625Z,3.10
2018-02-09T01:22:02.056Z,3.10
2018-02-09T01:24:30.306Z,3.30
2018-02-09T01:26:57.727Z,3.30
2018-02-09T01:29:25.173Z,3.30
2018-02-09T01:31:52.583Z,3.40
2018-02-09T01:34:20.017Z,3.50
2018-02-09T01:36:47.522Z,3.60
2018-02-09T01:39:15.706Z,3.50
2018-02-09T01:41:43.127Z,3.50
2018-02-09T01:44:10.558Z,3.50
2018-02-09T01:46:37.980Z,3.50
2018-02-09T01:49:05.412Z,3.20
2018-02-09T01:51:33.604Z,3.50
2018-02-09T01:54:01.036Z,3.50
2018-02-09T01:56:29.224Z,3.30
2018-02-09T01:58:57.480Z,3.10
2018-02-09T02:01:24.887Z,3.10
2018-02-09T02:03:52.312Z,3.10
2018-02-09T02:06:20.518Z,2.80
2018-02-09T02:08:47.941Z,2.80
2018-02-09T02:11:16.136Z,2.70
2018-02-09T02:13:43.559Z,2.60
2018-02-09T02:16:11.024Z,2.40
2018-02-09T02:18:39.212Z,2.40
2018-02-09T02:21:07.428Z,2.50
2018-02-09T02:23:34.937Z,2.50
2018-02-09T02:26:03.136Z,2.80
2018-02-09T02:28:30.560Z,2.80
2018-02-09T02:30:57.992Z,2.60
2018-02-09T02:33:25.426Z,2.90
2018-02-09T02:35:52.856Z,3.10
2018-02-09T02:38:20.280Z,3.10
2018-02-09T02:40:48.381Z,3.10
2018-02-09T02:43:16.569Z,2.80
2018-02-09T02:45:43.996Z,2.80
2018-02-09T02:48:13.111Z,2.80
2018-02-09T02:50:41.302Z,2.90
2018-02-09T02:53:08.737Z,2.90
2018-02-09T02:55:36.927Z,2.80
2018-02-09T02:58:04.355Z,2.80
2018-02-09T03:00:31.849Z,2.60
2018-02-09T03:02:59.223Z,2.50
2018-02-09T03:05:26.640Z,2.50
2018-02-09T03:07:54.956Z,2.30
2018-02-09T03:10:22.407Z,2.30
2018-02-09T03:12:49.860Z,2.40
2018-02-09T03:15:17.591Z,2.20
2018-02-09T03:17:45.003Z,2.20
2018-02-09T03:20:12.665Z,2.20
2018-02-09T03:22:40.101Z,2.30
2018-02-09T03:25:08.269Z,2.00
2018-02-09T03:27:35.688Z,1.80
2018-02-09T03:30:03.113Z,1.90
2018-02-09T03:32:30.550Z,2.10
2018-02-09T03:34:57.978Z,2.20
2018-02-09T03:37:26.164Z,2.20
2018-02-09T03:39:53.597Z,2.20
2018-02-09T03:42:21.780Z,2.30
2018-02-09T03:44:49.977Z,2.50
2018-02-09T03:47:17.401Z,2.50
2018-02-09T03:49:45.609Z,2.70
2018-02-09T03:52:13.032Z,2.60
2018-02-09T03:54:41.231Z,2.60
2018-02-09T03:57:08.669Z,2.60
2018-02-09T03:59:37.602Z,2.50
2018-02-09T04:02:05.024Z,2.50
2018-02-09T04:04:33.220Z,2.60
2018-02-09T04:07:00.647Z,2.50
2018-02-09T04:09:28.853Z,2.50
2018-02-09T04:11:56.377Z,2.50
2018-02-09T04:14:23.797Z,2.70
2018-02-09T04:16:51.239Z,3.00
2018-02-09T04:19:18.673Z,2.90
2018-02-09T04:21:46.096Z,2.90
2018-02-09T04:24:13.554Z,3.20
2018-02-09T04:26:41.016Z,3.40
2018-02-09T04:29:08.442Z,3.20
2018-02-09T04:31:35.964Z,3.20
2018-02-09T04:34:03.384Z,3.30
2018-02-09T04:36:30.820Z,3.30
2018-02-09T04:38:58.241Z,3.30
2018-02-09T04:41:25.671Z,3.30
2018-02-09T04:43:53.886Z,2.80
2018-02-09T04:46:21.312Z,2.80
2018-02-09T04:48:49.504Z,2.90
2018-02-09T04:51:16.939Z,2.80
2018-02-09T04:53:45.133Z,2.90
2018-02-09T04:56:12.854Z,2.90
2018-02-09T04:58:40.277Z,2.70
2018-02-09T05:01:07.720Z,2.70
2018-02-09T05:03:35.144Z,2.80
2018-02-09T05:06:03.337Z,3.20
2018-02-09T05:08:30.777Z,3.10
2018-02-09T05:10:59.112Z,2.90
2018-02-09T05:13:26.553Z,2.90
2018-02-09T05:15:54.197Z,2.50
2018-02-09T05:18:21.661Z,2.30
2018-02-09T05:20:49.095Z,2.20
2018-02-09T05:23:17.290Z,2.40
2018-02-09T05:25:44.707Z,2.40
2018-02-09T05:28:13.651Z,2.30
2018-02-09T05:30:41.083Z,2.30
2018-02-09T05:33:09.285Z,1.60
2018-02-09T05:35:36.792Z,1.60
2018-02-09T05:38:04.228Z,1.50
2018-02-09T05:40:31.658Z,1.50
2018-02-09T05:42:59.095Z,1.50
2018-02-09T05:45:26.541Z,1.70
2018-02-09T05:47:54.748Z,1.60
2018-02-09T05:50:22.167Z,1.50
2018-02-09T05:52:50.376Z,1.40
2018-02-09T05:55:17.808Z,1.40
2018-02-09T05:57:45.991Z,1.40
2018-02-09T06:00:13.420Z,1.40
2018-02-09T06:02:40.853Z,1.30
2018-02-09T06:05:08.343Z,1.20
2018-02-09T06:07:35.812Z,0.90
2018-02-09T06:10:03.308Z,1.10
2018-02-09T06:12:30.728Z,1.30
2018-02-09T06:14:58.920Z,1.20
2018-02-09T06:17:26.353Z,1.20
2018-02-09T06:19:54.548Z,1.30
2018-02-09T06:22:21.981Z,1.30
2018-02-09T06:24:50.180Z,1.20
2018-02-09T06:27:17.619Z,1.20
2018-02-09T06:29:45.810Z,1.60
2018-02-09T06:32:13.255Z,1.60
2018-02-09T06:34:41.437Z,1.20
2018-02-09T06:37:08.880Z,1.10
2018-02-09T06:39:37.067Z,1.20
2018-02-09T06:42:04.516Z,1.20
2018-02-09T06:44:32.704Z,0.90
2018-02-09T06:47:00.903Z,0.90
2018-02-09T06:49:28.341Z,1.00
2018-02-09T06:51:55.778Z,0.90
2018-02-09T06:54:23.989Z,0.70
2018-02-09T06:56:51.445Z,0.70
2018-02-09T06:59:18.864Z,1.10
2018-02-09T07:01:47.068Z,1.10
2018-02-09T07:04:14.529Z,1.10
2018-02-09T07:06:41.984Z,1.00
2018-02-09T07:09:09.417Z,1.10
2018-02-09T07:11:37.640Z,1.10
2018-02-09T07:14:05.105Z,1.10
2018-02-09T07:16:33.211Z,1.20
2018-02-09T07:19:00.661Z,1.30
2018-02-09T07:21:28.093Z,1.60
2018-02-09T07:26:29.318Z,1.60
2018-02-09T07:28:56.804Z,1.40
2018-02-09T07:31:24.239Z,1.40
2018-02-09T07:33:51.700Z,1.40
2018-02-09T07:36:19.115Z,1.20
2018-02-09T07:38:46.553Z,0.90
2018-02-09T07:41:13.990Z,1.10
2018-02-09T07:43:41.436Z,1.20
2018-02-09T07:46:08.870Z,1.20
2018-02-09T07:48:36.369Z,1.10
2018-02-09T07:51:03.827Z,0.90
2018-02-09T07:53:31.252Z,0.90
2018-02-09T07:55:58.717Z,1.10
2018-02-09T07:58:26.175Z,1.40
2018-02-09T08:00:54.359Z,1.40
2018-02-09T08:03:21.789Z,1.40
2018-02-09T08:05:49.997Z,1.70
2018-02-09T08:08:17.583Z,1.70
2018-02-09T08:10:45.009Z,1.70
2018-02-09T08:13:13.172Z,2.10
2018-02-09T08:15:40.609Z,2.30
2018-02-09T08:18:08.824Z,2.70
2018-02-09T08:20:36.276Z,2.70
2018-02-09T08:23:03.721Z,3.10
2018-02-09T08:25:31.147Z,3.30
2018-02-09T08:27:59.344Z,3.70
2018-02-09T08:30:26.768Z,3.70
2018-02-09T08:32:54.217Z,3.90
2018-02-09T08:35:21.649Z,4.60
2018-02-09T08:37:49.084Z,5.10
2018-02-09T08:40:16.512Z,4.80
2018-02-09T08:42:44.745Z,5.60
2018-02-09T08:45:12.169Z,5.50
2018-02-09T08:47:39.680Z,5.60
2018-02-09T08:50:07.113Z,6.20
2018-02-09T08:52:34.576Z,6.50
2018-02-09T08:55:02.000Z,6.70
2018-02-09T08:57:29.445Z,6.70
2018-02-09T08:59:56.872Z,6.70
2018-02-09T09:02:24.318Z,7.20
2018-02-09T09:04:51.739Z,7.50
2018-02-09T09:07:19.205Z,7.10
2018-02-09T09:09:46.643Z,6.80
2018-02-09T09:12:15.566Z,7.70
2018-02-09T09:14:43.039Z,7.90
2018-02-09T09:17:10.428Z,7.90
2018-02-09T09:19:38.766Z,8.90
2018-02-09T09:22:06.209Z,8.90
2018-02-09T09:24:33.644Z,9.20
2018-02-09T09:27:01.086Z,9.10
2018-02-09T09:29:29.288Z,9.20
2018-02-09T09:31:56.733Z,9.20
2018-02-09T09:34:24.164Z,9.30
2018-02-09T09:36:52.985Z,8.70
2018-02-09T09:39:21.163Z,9.10
2018-02-09T09:41:49.720Z,9.10
2018-02-09T09:44:17.959Z,9.70
2018-02-09T09:46:45.381Z,9.70
2018-02-09T09:49:13.764Z,10.20
2018-02-09T09:51:41.195Z,10.70
2018-02-09T09:54:08.660Z,11.10
2018-02-09T09:56:36.111Z,11.30
2018-02-09T09:59:03.545Z,11.50
2018-02-09T10:01:31.764Z,11.60
2018-02-09T10:03:59.296Z,11.60
2018-02-09T10:06:27.500Z,12.60
2018-02-09T10:08:54.943Z,12.60
2018-02-09T10:11:22.632Z,13.20
2018-02-09T10:13:50.061Z,13.40
2018-02-09T10:16:17.509Z,13.10
2018-02-09T10:18:45.716Z,11.10
2018-02-09T10:21:13.714Z,11.00
2018-02-09T10:23:41.190Z,10.80
2018-02-09T10:26:09.404Z,11.60
2018-02-09T10:28:36.876Z,11.60
2018-02-09T10:31:04.347Z,10.10
2018-02-09T10:33:31.789Z,8.80
2018-02-09T10:35:59.289Z,8.70
2018-02-09T10:38:26.727Z,9.10
2018-02-09T10:40:54.181Z,8.80
2018-02-09T10:43:21.604Z,8.40
2018-02-09T10:45:49.025Z,9.10
2018-02-09T10:48:16.458Z,10.00
2018-02-09T10:50:43.878Z,9.60
2018-02-09T10:53:11.327Z,8.90
2018-02-09T10:55:38.753Z,8.40
2018-02-09T10:58:06.192Z,8.90
2018-02-09T11:00:39.361Z,9.60
2018-02-09T11:03:06.828Z,10.50
2018-02-09T11:05:34.265Z,10.50
2018-02-09T11:08:01.714Z,10.60
2018-02-09T11:10:32.997Z,10.90
2018-02-09T11:13:00.534Z,10.60
2018-02-09T11:15:28.000Z,10.20
2018-02-09T11:17:55.448Z,10.20
2018-02-09T11:20:22.903Z,9.90
2018-02-09T11:22:50.315Z,10.20
2018-02-09T11:25:18.534Z,9.70
2018-02-09T11:27:45.963Z,9.70
2018-02-09T11:30:13.884Z,9.00
2018-02-09T11:32:41.336Z,9.10
2018-02-09T11:35:08.812Z,9.10
2018-02-09T11:37:36.216Z,8.80
2018-02-09T11:40:03.699Z,8.90
2018-02-09T11:42:31.120Z,8.80
2018-02-09T11:44:59.333Z,9.50
2018-02-09T11:47:26.776Z,9.50
2018-02-09T11:49:54.204Z,9.90
2018-02-09T11:52:22.410Z,10.30
2018-02-09T11:54:49.869Z,10.20
2018-02-09T11:57:17.304Z,10.80
2018-02-09T11:59:44.780Z,10.80
2018-02-09T12:02:12.210Z,10.90
2018-02-09T12:04:40.479Z,12.00
2018-02-09T12:07:08.694Z,11.60
2018-02-09T12:09:36.128Z,11.60
2018-02-09T12:12:03.566Z,11.80
2018-02-09T12:14:31.764Z,12.20
2018-02-09T12:16:59.210Z,12.20
2018-02-09T12:19:27.396Z,12.10
2018-02-09T12:21:54.837Z,12.00
2018-02-09T12:24:22.273Z,12.60
2018-02-09T12:26:49.713Z,12.90
2018-02-09T12:29:17.157Z,12.90
2018-02-09T12:31:44.594Z,12.50
2018-02-09T12:34:12.038Z,12.10
2018-02-09T12:36:40.244Z,12.80
2018-02-09T12:39:07.818Z,12.80
2018-02-09T12:41:35.262Z,11.60
2018-02-09T12:44:02.698Z,11.30
2018-02-09T12:46:30.184Z,11.00
2018-02-09T12:48:58.384Z,10.10
2018-02-09T12:51:25.829Z,10.00
2018-02-09T12:53:53.264Z,10.00
2018-02-09T12:56:20.718Z,9.70
2018-02-09T12:58:48.152Z,9.10
2018-02-09T13:01:15.585Z,8.60
2018-02-09T13:03:43.014Z,8.10
2018-02-09T13:06:10.451Z,8.00
2018-02-09T13:08:37.885Z,7.70
2018-02-09T13:11:05.329Z,6.70
2018-02-09T13:13:32.745Z,6.50
2018-02-09T13:16:00.181Z,6.40
2018-02-09T13:18:39.621Z,6.60
2018-02-09T13:21:07.056Z,6.50
2018-02-09T13:23:46.420Z,6.70
2018-02-09T13:26:14.442Z,7.00
2018-02-09T13:28:54.744Z,8.50
2018-02-09T13:31:22.247Z,8.50
2018-02-09T13:33:50.441Z,8.80
2018-02-09T13:36:18.645Z,9.60
2018-02-09T13:38:46.072Z,9.60
2018-02-09T13:41:15.184Z,8.80
2018-02-09T13:43:44.198Z,9.20
2018-02-09T13:46:11.626Z,9.20
2018-02-09T13:48:39.845Z,10.10
2018-02-09T13:51:07.273Z,10.10
2018-02-09T13:53:34.728Z,10.30
2018-02-09T13:56:02.172Z,10.80
2018-02-09T13:58:29.612Z,11.10
2018-02-09T14:00:57.808Z,10.70
2018-02-09T14:03:25.293Z,10.60
2018-02-09T14:05:52.698Z,10.20
2018-02-09T14:08:20.141Z,9.50
2018-02-09T14:10:47.564Z,9.60
2018-02-09T14:13:14.996Z,9.80
2018-02-09T14:15:42.433Z,10.20
2018-02-09T14:18:10.637Z,10.20
2018-02-09T14:20:38.085Z,10.10
2018-02-09T14:23:05.521Z,10.20
2018-02-09T14:25:33.737Z,10.40
2018-02-09T14:28:01.363Z,10.30
2018-02-09T14:30:28.780Z,10.00
2018-02-09T14:32:56.216Z,9.60
2018-02-09T14:35:23.637Z,9.40
2018-02-09T14:37:51.865Z,10.00
2018-02-09T14:40:19.308Z,10.00
2018-02-09T14:42:46.738Z,10.20
2018-02-09T14:45:14.663Z,10.30
2018-02-09T14:47:42.160Z,9.60
2018-02-09T14:50:10.364Z,9.20
2018-02-09T14:52:37.820Z,9.20
2018-02-09T14:55:05.252Z,8.50
2018-02-09T14:57:33.457Z,8.20
2018-02-09T15:00:00.896Z,8.10
2018-02-09T15:02:28.335Z,8.40
2018-02-09T15:04:56.532Z,8.30
2018-02-09T15:07:23.969Z,8.30
2018-02-09T15:09:52.161Z,7.80
2018-02-09T15:12:19.594Z,7.70
2018-02-09T15:14:47.813Z,7.70
2018-02-09T15:17:15.276Z,7.70
2018-02-09T15:19:42.713Z,7.30
2018-02-09T15:22:10.181Z,7.60
2018-02-09T15:24:37.596Z,7.50
2018-02-09T15:27:05.804Z,6.90
2018-02-09T15:29:33.227Z,6.90
2018-02-09T15:32:01.449Z,6.00
2018-02-09T15:34:28.896Z,6.00
2018-02-09T15:36:56.308Z,6.10
2018-02-09T15:39:23.748Z,5.80
2018-02-09T15:41:51.262Z,5.80
2018-02-09T15:44:19.441Z,5.90
2018-02-09T15:46:46.894Z,5.90
2018-02-09T15:49:15.261Z,6.30
2018-02-09T15:51:43.455Z,6.60
2018-02-09T15:54:10.900Z,6.50
2018-02-09T15:56:38.378Z,6.10
2018-02-09T15:59:05.822Z,6.00
2018-02-09T16:01:33.257Z,5.70
2018-02-09T16:04:01.460Z,6.00
2018-02-09T16:06:28.888Z,6.00
2018-02-09T16:08:57.105Z,5.50
2018-02-09T16:11:24.588Z,5.50
2018-02-09T16:13:51.977Z,5.60
2018-02-09T16:16:20.176Z,5.90
2018-02-09T16:18:47.604Z,5.90
2018-02-09T16:21:16.714Z,5.70
2018-02-09T16:23:44.912Z,5.50
2018-02-09T16:26:12.364Z,5.50
2018-02-09T16:28:39.788Z,5.40
2018-02-09T16:31:08.005Z,5.10
2018-02-09T16:33:35.428Z,5.10
2018-02-09T16:36:03.633Z,5.00
2018-02-09T16:38:31.070Z,5.00
2018-02-09T16:40:59.242Z,5.30
2018-02-09T16:43:27.433Z,5.30
2018-02-09T16:45:54.961Z,5.20
2018-02-09T16:48:22.388Z,5.10
2018-02-09T16:50:49.801Z,5.00
2018-02-09T16:53:17.240Z,5.10
2018-02-09T16:55:45.448Z,5.10
2018-02-09T16:58:12.876Z,5.10
2018-02-09T17:00:41.080Z,5.30
2018-02-09T17:03:08.553Z,5.30
2018-02-09T17:05:35.981Z,5.30
2018-02-09T17:08:03.454Z,5.00
2018-02-09T17:10:30.880Z,4.90
2018-02-09T17:12:59.072Z,4.90
2018-02-09T17:15:26.495Z,4.90
2018-02-09T17:17:53.944Z,4.90
2018-02-09T17:20:21.378Z,4.90
2018-02-09T17:22:48.820Z,4.80
2018-02-09T17:25:16.408Z,5.10
2018-02-09T17:27:43.864Z,5.40
2018-02-09T17:30:11.308Z,5.70
2018-02-09T17:32:38.755Z,5.40
2018-02-09T17:35:06.241Z,5.00
2018-02-09T17:37:33.664Z,5.30
2018-02-09T17:40:01.095Z,5.50
2018-02-09T17:42:29.302Z,5.10
2018-02-09T17:44:56.730Z,5.10
2018-02-09T17:47:24.156Z,5.00
2018-02-09T17:49:51.608Z,4.90
2018-02-09T17:52:19.040Z,4.90
2018-02-09T17:54:46.517Z,5.30
2018-02-09T17:57:14.750Z,5.30
2018-02-09T17:59:42.170Z,5.20
2018-02-09T18:02:09.590Z,5.10
2018-02-09T18:04:37.025Z,4.70
2018-02-09T18:07:04.448Z,4.70
2018-02-09T18:09:32.644Z,4.90
2018-02-09T18:12:00.064Z,4.90
2018-02-09T18:14:27.511Z,4.90
2018-02-09T18:16:54.955Z,5.10
2018-02-09T18:19:22.399Z,4.80
2018-02-09T18:21:49.846Z,5.00
2018-02-09T18:24:17.286Z,5.00
2018-02-09T18:26:44.737Z,4.80
2018-02-09T18:29:12.931Z,5.10
2018-02-09T18:31:40.360Z,5.10
2018-02-09T18:34:08.549Z,5.20
2018-02-09T18:36:35.994Z,5.20
2018-02-09T18:39:04.183Z,5.00
2018-02-09T18:41:31.658Z,5.00
2018-02-09T18:43:59.086Z,4.90
2018-02-09T18:46:28.219Z,5.10
2018-02-09T18:48:55.649Z,5.10
2018-02-09T18:51:23.089Z,5.50
2018-02-09T18:53:51.301Z,5.20
2018-02-09T18:56:18.733Z,5.10
2018-02-09T18:58:46.954Z,5.20
2018-02-09T19:01:14.400Z,5.20
2018-02-09T19:03:41.829Z,5.30
2018-02-09T19:06:09.260Z,5.30
2018-02-09T19:08:37.474Z,5.30
2018-02-09T19:11:04.937Z,5.30
2018-02-09T19:13:32.348Z,5.40
2018-02-09T19:15:59.786Z,5.30
2018-02-09T19:18:27.252Z,5.60
2018-02-09T19:20:54.676Z,5.20
2018-02-09T19:23:22.120Z,5.40
2018-02-09T19:25:49.524Z,5.20
2018-02-09T19:28:16.957Z,5.50
2018-02-09T19:30:44.398Z,5.40
2018-02-09T19:33:11.824Z,5.40
2018-02-09T19:35:40.029Z,5.20
2018-02-09T19:38:07.465Z,5.20
2018-02-09T19:40:35.659Z,4.90
2018-02-09T19:43:03.081Z,4.90
2018-02-09T19:45:31.334Z,4.80
2018-02-09T19:47:58.700Z,4.80
2018-02-09T19:50:26.144Z,4.80
2018-02-09T19:52:53.602Z,4.80
2018-02-09T19:55:21.030Z,4.80
2018-02-09T19:57:48.457Z,4.90
2018-02-09T20:00:15.884Z,4.40
2018-02-09T20:02:43.320Z,4.60
2018-02-09T20:05:10.749Z,5.10
2018-02-09T20:07:38.185Z,5.10
2018-02-09T20:10:05.627Z,5.50
2018-02-09T20:12:33.815Z,5.60
2018-02-09T20:15:01.287Z,5.60
2018-02-09T20:17:28.711Z,5.90
2018-02-09T20:19:56.149Z,6.10
2018-02-09T20:22:23.628Z,6.10
2018-02-09T20:24:51.030Z,6.10
2018-02-09T20:27:18.481Z,6.00
2018-02-09T20:29:45.907Z,5.70
2018-02-09T20:32:14.096Z,5.70
2018-02-09T20:34:41.521Z,5.70
2018-02-09T20:37:08.956Z,5.40
2018-02-09T20:39:36.392Z,5.80
2018-02-09T20:42:03.825Z,5.60
2018-02-09T20:44:31.249Z,5.80
2018-02-09T20:46:58.680Z,5.80
2018-02-09T20:49:26.123Z,5.30
2018-02-09T20:51:53.544Z,5.60
2018-02-09T20:54:21.749Z,5.50
2018-02-09T20:56:49.192Z,5.50
2018-02-09T20:59:16.686Z,5.60
2018-02-09T21:01:44.917Z,5.60
2018-02-09T21:04:12.361Z,5.60
2018-02-09T21:06:40.552Z,6.00
2018-02-09T21:09:07.980Z,6.00
2018-02-09T21:11:36.181Z,5.70
2018-02-09T21:14:03.628Z,5.70
2018-02-09T21:16:31.836Z,5.80
2018-02-09T21:18:59.272Z,5.80
2018-02-09T21:21:26.700Z,5.90
2018-02-09T21:23:54.168Z,6.00
2018-02-09T21:26:22.334Z,6.20
2018-02-09T21:28:49.758Z,6.20
2018-02-09T21:31:17.206Z,6.10
2018-02-09T21:33:44.622Z,6.10
2018-02-09T21:36:12.826Z,5.50
2018-02-09T21:38:40.249Z,5.50
2018-02-09T21:41:08.440Z,6.10
2018-02-09T21:43:35.904Z,6.10
2018-02-09T21:46:03.332Z,6.20
2018-02-09T21:48:31.552Z,6.40
2018-02-09T21:50:59.736Z,6.60
2018-02-09T21:53:27.185Z,6.60
2018-02-09T21:55:54.629Z,6.30
2018-02-09T21:58:22.046Z,6.20
2018-02-09T22:00:49.480Z,6.30
2018-02-09T22:03:16.920Z,6.20
2018-02-09T22:05:44.381Z,6.10
2018-02-09T22:08:11.825Z,6.00
2018-02-09T22:10:39.252Z,5.60
2018-02-09T22:13:07.457Z,5.90
2018-02-09T22:15:34.875Z,5.90
2018-02-09T22:18:03.077Z,5.50
2018-02-09T22:20:30.525Z,5.50
2018-02-09T22:22:58.758Z,5.70
2018-02-09T22:25:26.139Z,5.60
2018-02-09T22:27:54.351Z,5.50
2018-02-09T22:30:21.790Z,5.50
2018-02-09T22:32:49.232Z,5.40
2018-02-09T22:35:17.449Z,5.50
2018-02-09T22:37:44.878Z,5.50
2018-02-09T22:40:12.307Z,5.50
2018-02-09T22:42:39.734Z,5.10
2018-02-09T22:45:07.181Z,5.10
2018-02-09T22:47:34.632Z,5.00
2018-02-09T22:50:02.091Z,4.90
2018-02-09T22:52:29.867Z,5.00
2018-02-09T22:54:57.291Z,4.90
2018-02-09T22:57:24.736Z,5.00
2018-02-09T22:59:52.948Z,5.40
2018-02-09T23:02:20.391Z,5.40
2018-02-09T23:04:47.841Z,5.40
2018-02-09T23:07:16.037Z,5.80
2018-02-09T23:09:43.484Z,5.80
2018-02-09T23:12:10.914Z,5.80
2018-02-09T23:14:39.129Z,5.70
2018-02-09T23:17:06.577Z,5.70
2018-02-09T23:19:34.025Z,5.70
2018-02-09T23:22:01.481Z,5.70
2018-02-09T23:24:29.665Z,5.90
2018-02-09T23:26:57.113Z,5.80
2018-02-09T23:29:24.546Z,5.70
2018-02-09T23:31:52.737Z,5.70
2018-02-09T23:34:20.200Z,5.70
2018-02-09T23:36:48.400Z,5.50
2018-02-09T23:39:15.833Z,5.50
2018-02-09T23:41:43.262Z,5.40
2018-02-09T23:44:11.486Z,5.50
2018-02-09T23:46:38.917Z,5.50
2018-02-09T23:49:06.356Z,5.50
2018-02-09T23:51:34.572Z,5.90
2018-02-09T23:54:02.038Z,5.80
2018-02-09T23:56:29.894Z,5.40
2018-02-09T23:58:57.484Z,5.70
